createdAt,value
2022-07-30T00:02:23.122Z,57.44
2022-07-30T00:07:53.971Z,57.71
2022-07-30T00:13:25.087Z,57.68
2022-07-30T00:18:56.284Z,57.64
2022-07-30T00:24:27.871Z,57.65
2022-07-30T00:29:58.893Z,57.55
2022-07-30T00:35:30.137Z,57.80
2022-07-30T00:41:01.364Z,57.61
2022-07-30T00:46:32.326Z,57.77
2022-07-30T00:52:03.653Z,57.84
2022-07-30T00:57:35.483Z,57.63
2022-07-30T01:03:07.454Z,57.85
2022-07-30T01:08:38.728Z,57.98
2022-07-30T01:14:10.480Z,57.91
2022-07-30T01:19:52.706Z,57.87
2022-07-30T01:25:34.073Z,57.91
2022-07-30T01:31:06.611Z,58.16
2022-07-30T01:36:37.886Z,57.61
2022-07-30T01:42:09.419Z,57.84
2022-07-30T01:47:42.363Z,58.28
2022-07-30T01:53:17.466Z,58.26
2022-07-30T01:58:50.277Z,58.51
2022-07-30T02:04:24.418Z,58.60
2022-07-30T02:10:02.605Z,58.40
2022-07-30T02:15:58.707Z,58.40
2022-07-30T02:21:36.615Z,58.56
2022-07-30T02:27:17.198Z,58.87
2022-07-30T02:32:49.782Z,59.13
2022-07-30T02:38:21.632Z,59.19
2022-07-30T02:43:53.755Z,59.35
2022-07-30T02:49:27.632Z,59.03
2022-07-30T02:54:59.642Z,59.17
2022-07-30T03:00:32.016Z,59.16
2022-07-30T03:06:03.835Z,59.00
2022-07-30T03:11:35.444Z,59.08
2022-07-30T03:17:07.804Z,59.33
2022-07-30T03:22:43.566Z,59.25
2022-07-30T03:28:15.835Z,59.25
2022-07-30T03:33:47.660Z,59.35
2022-07-30T03:39:19.799Z,59.18
2022-07-30T03:44:51.394Z,59.11
2022-07-30T03:50:22.677Z,59.70
2022-07-30T03:55:54.550Z,59.45
2022-07-30T04:02:06.105Z,59.62
2022-07-30T04:07:57.416Z,59.60
2022-07-30T04:13:33.726Z,59.76
2022-07-30T04:19:09.171Z,59.99
2022-07-30T04:24:41.078Z,59.58
2022-07-30T04:30:12.929Z,59.55
2022-07-30T04:35:50.686Z,59.93
2022-07-30T04:41:49.375Z,59.75
2022-07-30T04:47:34.050Z,59.80
2022-07-30T04:53:24.688Z,60.16
2022-07-30T04:59:01.192Z,59.77
2022-07-30T05:04:33.509Z,59.66
2022-07-30T05:10:05.709Z,59.92
2022-07-30T05:15:37.350Z,60.00
2022-07-30T05:21:11.216Z,59.92
2022-07-30T05:26:48.985Z,59.73
2022-07-30T05:32:25.470Z,59.86
2022-07-30T05:38:00.611Z,60.40
2022-07-30T05:43:37.092Z,59.89
2022-07-30T05:49:08.592Z,59.93
2022-07-30T05:54:40.183Z,60.12
2022-07-30T06:00:12.488Z,60.09
2022-07-30T06:05:56.330Z,60.48
2022-07-30T06:11:27.401Z,60.20
2022-07-30T06:16:58.876Z,60.50
2022-07-30T06:22:34.867Z,60.47
2022-07-30T06:28:35.227Z,60.30
2022-07-30T06:34:03.451Z,60.39
2022-07-30T06:39:53.783Z,60.22
2022-07-30T06:45:54.407Z,60.42
2022-07-30T06:51:33.488Z,60.69
2022-07-30T06:57:05.378Z,60.74
2022-07-30T07:02:39.441Z,60.71
2022-07-30T07:08:14.346Z,60.92
2022-07-30T07:13:50.728Z,60.75
2022-07-30T07:20:01.112Z,60.18
2022-07-30T07:25:22.284Z,60.64
2022-07-30T07:30:53.646Z,60.64
2022-07-30T07:36:26.319Z,60.47
2022-07-30T07:41:58.208Z,60.81
2022-07-30T07:47:32.082Z,60.90
2022-07-30T07:53:16.697Z,60.87
2022-07-30T07:58:51.070Z,60.47
2022-07-30T08:04:26.010Z,61.16
2022-07-30T08:10:27.009Z,61.48
2022-07-30T08:16:10.838Z,61.34
2022-07-30T08:22:07.288Z,61.29
2022-07-30T08:27:38.662Z,60.91
2022-07-30T08:33:10.881Z,60.86
2022-07-30T08:38:42.133Z,60.92
2022-07-30T08:44:15.901Z,60.55
2022-07-30T08:49:49.027Z,60.75
2022-07-30T08:55:26.138Z,61.05
2022-07-30T09:01:05.565Z,61.31
2022-07-30T09:06:37.608Z,61.42
2022-07-30T09:12:45.879Z,61.27
2022-07-30T09:18:36.502Z,61.27
2022-07-30T09:24:11.171Z,61.17
2022-07-30T09:30:00.996Z,60.94
2022-07-30T09:35:56.245Z,60.64
2022-07-30T09:41:46.676Z,60.35
2022-07-30T09:47:45.078Z,60.40
2022-07-30T09:53:16.326Z,60.31
2022-07-30T09:58:48.650Z,61.14
2022-07-30T10:04:31.067Z,60.81
2022-07-30T10:10:12.799Z,64.09
2022-07-30T10:15:49.873Z,64.11
2022-07-30T10:21:21.103Z,63.56
2022-07-30T10:27:15.799Z,64.16
2022-07-30T10:33:05.454Z,65.47
2022-07-30T10:38:41.716Z,66.64
2022-07-30T10:44:48.925Z,65.90
2022-07-30T10:50:26.963Z,66.13
2022-07-30T10:56:25.708Z,65.50
2022-07-30T11:01:59.952Z,63.57
2022-07-30T11:07:34.159Z,62.93
2022-07-30T11:13:07.039Z,64.61
2022-07-30T11:19:55.085Z,64.46
2022-07-30T11:25:50.309Z,64.75
2022-07-30T11:31:58.637Z,63.88
2022-07-30T11:37:32.185Z,62.99
2022-07-30T11:43:17.555Z,63.94
2022-07-30T11:48:57.562Z,62.45
2022-07-30T11:54:29.019Z,63.17
2022-07-30T12:00:00.259Z,60.28
2022-07-30T12:05:31.676Z,60.74
2022-07-30T12:11:02.677Z,60.92
2022-07-30T12:16:35.140Z,60.92
2022-07-30T12:22:06.377Z,61.40
2022-07-30T12:27:38.032Z,60.23
2022-07-30T12:33:09.237Z,60.41
2022-07-30T12:38:50.592Z,59.51
2022-07-30T12:44:42.620Z,60.42
2022-07-30T12:50:17.895Z,60.93
2022-07-30T12:55:49.079Z,60.23
2022-07-30T13:01:40.113Z,59.08
2022-07-30T13:07:13.141Z,59.55
2022-07-30T13:12:45.650Z,59.51
2022-07-30T13:18:16.961Z,59.28
2022-07-30T13:23:47.942Z,59.50
2022-07-30T13:29:18.914Z,59.57
2022-07-30T13:34:49.783Z,60.16
2022-07-30T13:40:21.010Z,60.47
2022-07-30T13:45:53.133Z,59.73
2022-07-30T13:51:24.496Z,59.32
2022-07-30T13:56:56.166Z,59.03
2022-07-30T14:02:28.164Z,58.83
2022-07-30T14:08:04.252Z,58.80
2022-07-30T14:13:35.296Z,58.56
2022-07-30T14:19:06.688Z,58.36
2022-07-30T14:24:38.139Z,58.25
2022-07-30T14:30:10.732Z,57.91
2022-07-30T14:35:41.772Z,58.31
2022-07-30T14:41:13.190Z,57.97
2022-07-30T14:46:51.805Z,57.63
2022-07-30T14:52:30.121Z,57.89
2022-07-30T14:58:01.691Z,57.66
2022-07-30T15:03:35.152Z,57.71
2022-07-30T15:09:07.214Z,57.97
2022-07-30T15:14:39.960Z,58.17
2022-07-30T15:20:12.422Z,57.93
2022-07-30T15:25:43.522Z,57.71
2022-07-30T15:31:14.616Z,57.51
2022-07-30T15:36:45.822Z,56.53
2022-07-30T15:42:16.873Z,57.05
2022-07-30T15:47:47.716Z,58.52
2022-07-30T15:53:18.738Z,59.02
2022-07-30T15:58:49.772Z,60.36
2022-07-30T16:04:20.459Z,60.12
2022-07-30T16:10:02.620Z,59.25
2022-07-30T16:15:33.902Z,58.89
2022-07-30T16:21:06.194Z,59.21
2022-07-30T16:26:37.418Z,59.64
2022-07-30T16:32:08.681Z,60.47
2022-07-30T16:37:39.516Z,60.43
2022-07-30T16:43:10.280Z,61.18
2022-07-30T16:48:41.277Z,62.06
2022-07-30T16:54:13.435Z,62.61
2022-07-30T16:59:44.367Z,62.74
2022-07-30T17:05:15.141Z,63.23
2022-07-30T17:10:47.768Z,63.65
2022-07-30T17:16:21.433Z,63.67
2022-07-30T17:21:52.412Z,63.50
2022-07-30T17:27:23.423Z,63.97
2022-07-30T17:32:54.445Z,63.79
2022-07-30T17:38:28.713Z,63.72
2022-07-30T17:43:59.957Z,63.38
2022-07-30T17:49:31.421Z,63.22
2022-07-30T17:55:03.110Z,63.15
2022-07-30T18:00:35.578Z,63.42
2022-07-30T18:06:06.970Z,64.12
2022-07-30T18:11:38.389Z,64.68
2022-07-30T18:17:14.129Z,64.83
2022-07-30T18:22:45.652Z,65.07
2022-07-30T18:28:17.038Z,65.51
2022-07-30T18:33:49.715Z,65.52
2022-07-30T18:39:21.143Z,64.57
2022-07-30T18:44:52.419Z,66.02
2022-07-30T18:50:25.037Z,65.89
2022-07-30T18:55:56.447Z,65.33
2022-07-30T19:01:27.752Z,64.19
2022-07-30T19:06:58.934Z,62.65
2022-07-30T19:12:32.391Z,61.46
2022-07-30T19:18:03.450Z,60.97
2022-07-30T19:23:34.513Z,60.16
2022-07-30T19:29:08.108Z,60.14
2022-07-30T19:34:40.758Z,59.56
2022-07-30T19:40:12.747Z,59.54
2022-07-30T19:45:47.318Z,59.36
2022-07-30T19:51:21.011Z,59.09
2022-07-30T19:56:56.378Z,59.18
2022-07-30T20:02:28.289Z,59.26
2022-07-30T20:08:00.122Z,59.15
2022-07-30T20:13:45.122Z,58.82
2022-07-30T20:19:19.477Z,58.89
2022-07-30T20:24:53.435Z,58.98
2022-07-30T20:30:25.310Z,59.03
2022-07-30T20:35:57.204Z,58.74
2022-07-30T20:41:28.385Z,58.74
2022-07-30T20:46:59.839Z,58.70
2022-07-30T20:52:40.690Z,59.00
2022-07-30T20:58:17.256Z,58.88
2022-07-30T21:03:49.741Z,58.99
2022-07-30T21:09:21.226Z,59.04
2022-07-30T21:14:53.418Z,59.01
2022-07-30T21:20:27.752Z,59.07
2022-07-30T21:26:03.819Z,59.07
2022-07-30T21:32:01.597Z,59.20
2022-07-30T21:37:36.403Z,58.89
2022-07-30T21:43:08.140Z,59.32
2022-07-30T21:48:39.752Z,59.48
2022-07-30T21:54:13.164Z,59.47
2022-07-30T21:59:48.109Z,59.64
2022-07-30T22:05:19.516Z,59.53
2022-07-30T22:10:55.787Z,59.35
2022-07-30T22:16:26.800Z,59.58
2022-07-30T22:22:03.565Z,59.32
2022-07-30T22:27:56.118Z,59.59
2022-07-30T22:33:30.520Z,59.42
2022-07-30T22:39:02.522Z,59.61
2022-07-30T22:44:45.726Z,59.28
2022-07-30T22:50:23.825Z,59.27
2022-07-30T22:55:59.310Z,59.60
2022-07-30T23:01:30.807Z,59.52
2022-07-30T23:07:03.079Z,59.46
2022-07-30T23:12:36.803Z,59.46
2022-07-30T23:18:08.635Z,59.39
2022-07-30T23:23:40.760Z,59.65
2022-07-30T23:29:15.719Z,58.98
2022-07-30T23:34:46.864Z,59.31
2022-07-30T23:40:18.827Z,59.12
2022-07-30T23:45:50.321Z,59.14
2022-07-30T23:51:21.269Z,59.29
2022-07-30T23:56:56.313Z,58.97
